createdAt,value
2023-04-20T00:01:38.976Z,99151.41
2023-04-20T00:04:42.751Z,99145.53
2023-04-20T00:07:48.850Z,99149.91
2023-04-20T00:10:52.552Z,99137.53
2023-04-20T00:13:56.145Z,99140.25
2023-04-20T00:16:59.844Z,99129.25
2023-04-20T00:20:04.072Z,99136.66
2023-04-20T00:23:09.208Z,99137.47
2023-04-20T00:26:12.740Z,99123.31
2023-04-20T00:29:18.280Z,99139.38
2023-04-20T00:32:21.971Z,99126.41
2023-04-20T00:35:25.798Z,99129.53
2023-04-20T00:38:30.991Z,99131.78
2023-04-20T00:41:36.275Z,99129.53
2023-04-20T00:44:39.902Z,99135.72
2023-04-20T00:47:43.883Z,99128.91
2023-04-20T00:50:48.199Z,99136.16
2023-04-20T00:53:53.264Z,99133.44
2023-04-20T00:56:58.095Z,99134.44
2023-04-20T01:00:02.023Z,99133.09
2023-04-20T01:03:06.388Z,99125.31
2023-04-20T01:06:11.188Z,99132.81
2023-04-20T01:09:16.435Z,99127.31
2023-04-20T01:12:21.348Z,99127.59
2023-04-20T01:15:25.010Z,99130.00
2023-04-20T01:18:28.510Z,99125.84
2023-04-20T01:21:33.697Z,99126.59
2023-04-20T01:24:38.580Z,99125.94
2023-04-20T01:27:42.233Z,99123.31
2023-04-20T01:30:45.778Z,99128.63
2023-04-20T01:33:49.402Z,99123.66
2023-04-20T01:36:53.038Z,99124.81
2023-04-20T01:39:58.472Z,99119.78
2023-04-20T01:43:01.984Z,99122.66
2023-04-20T01:46:06.236Z,99120.06
2023-04-20T01:49:10.628Z,99110.78
2023-04-20T01:52:14.208Z,99116.47
2023-04-20T01:55:20.235Z,99113.94
2023-04-20T01:58:23.941Z,99110.97
2023-04-20T02:01:27.614Z,99111.75
2023-04-20T02:04:31.381Z,99108.00
2023-04-20T02:07:34.941Z,99105.81
2023-04-20T02:10:40.027Z,99103.88
2023-04-20T02:13:45.727Z,99099.84
2023-04-20T02:16:49.397Z,99104.28
2023-04-20T02:19:52.958Z,99103.63
2023-04-20T02:22:56.598Z,99100.00
2023-04-20T02:26:01.561Z,99111.47
2023-04-20T02:29:05.134Z,99108.53
2023-04-20T02:32:10.982Z,99107.53
2023-04-20T02:35:14.633Z,99111.75
2023-04-20T02:38:19.420Z,99111.94
2023-04-20T02:41:24.938Z,99113.09
2023-04-20T02:44:28.547Z,99109.03
2023-04-20T02:47:32.333Z,99110.97
2023-04-20T02:50:38.133Z,99107.81
2023-04-20T02:53:57.426Z,99110.63
2023-04-20T02:57:07.288Z,99104.59
2023-04-20T03:00:13.705Z,99112.91
2023-04-20T03:03:35.803Z,99117.81
2023-04-20T03:06:40.875Z,99113.59
2023-04-20T03:09:47.485Z,99121.13
2023-04-20T03:13:21.903Z,99111.31
2023-04-20T03:16:37.998Z,99116.72
2023-04-20T03:19:42.114Z,99114.56
2023-04-20T03:22:45.823Z,99114.84
2023-04-20T03:25:49.686Z,99107.25
2023-04-20T03:29:17.831Z,99113.44
2023-04-20T03:32:22.548Z,99112.31
2023-04-20T03:35:26.225Z,99108.06
2023-04-20T03:38:30.109Z,99105.31
2023-04-20T03:41:33.634Z,99113.19
2023-04-20T03:44:38.585Z,99110.00
2023-04-20T03:47:42.695Z,99111.97
2023-04-20T03:50:46.329Z,99111.97
2023-04-20T03:53:49.974Z,99108.91
2023-04-20T03:56:53.747Z,99119.81
2023-04-20T03:59:59.862Z,99117.22
2023-04-20T04:03:10.565Z,99119.50
2023-04-20T04:06:14.385Z,99126.38
2023-04-20T04:09:18.729Z,99122.94
2023-04-20T04:12:22.578Z,99123.75
2023-04-20T04:15:28.809Z,99138.69
2023-04-20T04:18:44.821Z,99139.13
2023-04-20T04:21:48.534Z,99126.34
2023-04-20T04:24:54.565Z,99129.44
2023-04-20T04:27:58.233Z,99138.28
2023-04-20T04:31:06.613Z,99133.00
2023-04-20T04:34:12.565Z,99142.22
2023-04-20T04:37:28.346Z,99144.03
2023-04-20T04:40:33.874Z,99139.53
2023-04-20T04:43:39.708Z,99137.81
2023-04-20T04:46:57.964Z,99139.13
2023-04-20T04:50:06.074Z,99145.81
2023-04-20T04:53:09.920Z,99139.19
2023-04-20T04:56:14.588Z,99148.22
2023-04-20T04:59:18.411Z,99142.34
2023-04-20T05:02:23.790Z,99147.69
2023-04-20T05:05:27.526Z,99148.06
2023-04-20T05:08:31.239Z,99147.91
2023-04-20T05:11:34.949Z,99145.84
2023-04-20T05:14:38.958Z,99154.06
2023-04-20T05:17:44.440Z,99152.69
2023-04-20T05:20:48.137Z,99156.13
2023-04-20T05:23:51.858Z,99156.66
2023-04-20T05:26:55.604Z,99156.00
2023-04-20T05:30:09.496Z,99154.16
2023-04-20T05:33:24.600Z,99161.84
2023-04-20T05:36:29.734Z,99162.44
2023-04-20T05:39:33.449Z,99159.72
2023-04-20T05:42:37.023Z,99159.91
2023-04-20T05:45:40.808Z,99150.44
2023-04-20T05:48:46.256Z,99157.84
2023-04-20T05:51:50.002Z,99158.03
2023-04-20T05:54:54.492Z,99152.16
2023-04-20T05:57:58.616Z,99154.81
2023-04-20T06:01:02.833Z,99155.22
2023-04-20T06:04:08.219Z,99157.13
2023-04-20T06:07:11.960Z,99160.13
2023-04-20T06:10:15.868Z,99166.66
2023-04-20T06:13:19.584Z,99163.59
2023-04-20T06:16:23.288Z,99160.94
2023-04-20T06:19:28.589Z,99162.13
2023-04-20T06:22:32.325Z,99169.38
2023-04-20T06:25:37.829Z,99171.13
2023-04-20T06:28:41.877Z,99169.09
2023-04-20T06:31:45.743Z,99167.34
2023-04-20T06:34:52.644Z,99171.56
2023-04-20T06:37:57.881Z,99167.56
2023-04-20T06:41:02.952Z,99166.19
2023-04-20T06:44:06.691Z,99163.34
2023-04-20T06:47:10.437Z,99163.78
2023-04-20T06:50:15.722Z,99163.63
2023-04-20T06:53:19.425Z,99164.16
2023-04-20T06:56:23.363Z,99161.28
2023-04-20T06:59:27.021Z,99163.84
2023-04-20T07:02:30.906Z,99160.22
2023-04-20T07:05:37.985Z,99162.44
2023-04-20T07:08:41.813Z,99163.13
2023-04-20T07:11:45.579Z,99165.22
2023-04-20T07:14:49.288Z,99151.06
2023-04-20T07:17:52.952Z,99155.94
2023-04-20T07:20:58.114Z,99161.63
2023-04-20T07:24:01.793Z,99155.53
2023-04-20T07:27:05.970Z,99154.69
2023-04-20T07:30:11.398Z,99152.47
2023-04-20T07:33:15.244Z,99155.03
2023-04-20T07:36:21.925Z,99156.50
2023-04-20T07:39:28.794Z,99160.59
2023-04-20T07:42:34.252Z,99160.16
2023-04-20T07:45:41.755Z,99166.09
2023-04-20T07:48:45.610Z,99165.28
2023-04-20T07:51:50.739Z,99162.56
2023-04-20T07:54:54.893Z,99173.34
2023-04-20T07:57:58.866Z,99161.53
2023-04-20T08:01:02.507Z,99164.63
2023-04-20T08:04:06.901Z,99164.44
2023-04-20T08:07:12.595Z,99158.97
2023-04-20T08:10:16.439Z,99162.44
2023-04-20T08:13:20.280Z,99160.31
2023-04-20T08:16:24.138Z,99162.81
2023-04-20T08:19:27.858Z,99148.00
2023-04-20T08:22:33.788Z,99147.44
2023-04-20T08:25:40.575Z,99143.34
2023-04-20T08:28:45.396Z,99147.22
2023-04-20T08:31:51.325Z,99156.59
2023-04-20T08:34:57.131Z,99147.91
2023-04-20T08:38:02.592Z,99142.78
2023-04-20T08:41:06.655Z,99148.88
2023-04-20T08:44:10.324Z,99137.53
2023-04-20T08:47:16.570Z,99131.44
2023-04-20T08:50:21.100Z,99135.22
2023-04-20T08:53:26.354Z,99140.81
2023-04-20T08:56:37.251Z,99130.56
2023-04-20T08:59:41.339Z,99133.34
2023-04-20T09:02:56.238Z,99130.88
2023-04-20T09:06:00.137Z,99120.75
2023-04-20T09:09:11.904Z,99126.56
2023-04-20T09:12:15.539Z,99129.63
2023-04-20T09:15:29.325Z,99136.66
2023-04-20T09:18:33.086Z,99139.72
2023-04-20T09:21:36.905Z,99134.00
2023-04-20T09:24:43.726Z,99127.97
2023-04-20T09:27:57.249Z,99133.69
2023-04-20T09:31:01.528Z,99119.97
2023-04-20T09:34:05.936Z,99120.56
2023-04-20T09:37:11.809Z,99109.16
2023-04-20T09:40:18.012Z,99123.31
2023-04-20T09:43:25.802Z,99113.94
2023-04-20T09:46:32.788Z,99122.22
2023-04-20T09:49:36.883Z,99113.53
2023-04-20T09:52:42.311Z,99115.81
2023-04-20T09:55:49.801Z,99113.63
2023-04-20T09:58:54.219Z,99108.97
2023-04-20T10:01:57.929Z,99107.00
2023-04-20T10:05:02.272Z,99091.53
2023-04-20T10:08:06.494Z,99086.66
2023-04-20T10:11:11.990Z,99098.56
2023-04-20T10:14:20.505Z,99081.22
2023-04-20T10:17:31.635Z,99086.72
2023-04-20T10:20:35.489Z,99078.28
2023-04-20T10:23:49.705Z,99070.81
2023-04-20T10:26:54.845Z,99075.38
2023-04-20T10:29:58.585Z,99071.94
2023-04-20T10:33:06.759Z,99073.34
2023-04-20T10:36:10.499Z,99070.59
2023-04-20T10:39:19.776Z,99070.09
2023-04-20T10:42:26.678Z,99067.66
2023-04-20T10:45:40.471Z,99068.94
2023-04-20T10:48:52.792Z,99069.63
2023-04-20T10:51:57.515Z,99079.84
2023-04-20T10:55:01.361Z,99075.31
2023-04-20T10:58:06.724Z,99077.94
2023-04-20T11:01:10.518Z,99082.66
2023-04-20T11:04:18.308Z,99092.25
2023-04-20T11:07:22.284Z,99097.31
2023-04-20T11:10:38.255Z,99090.66
2023-04-20T11:13:43.584Z,99081.88
2023-04-20T11:16:54.522Z,99080.22
2023-04-20T11:20:09.466Z,99087.28
2023-04-20T11:23:13.353Z,99071.38
2023-04-20T11:26:17.407Z,99062.09
2023-04-20T11:29:36.147Z,99059.41
2023-04-20T11:32:40.142Z,99046.84
2023-04-20T11:35:44.603Z,99049.47
2023-04-20T11:38:48.321Z,99051.69
2023-04-20T11:41:52.542Z,99043.78
2023-04-20T11:44:57.832Z,99039.72
2023-04-20T11:48:01.622Z,99044.81
2023-04-20T11:51:05.412Z,99033.19
2023-04-20T11:54:09.184Z,99037.09
2023-04-20T11:57:13.330Z,99027.81
2023-04-20T12:00:19.793Z,99025.91
2023-04-20T12:03:24.579Z,99017.41
2023-04-20T12:06:29.001Z,99013.78
2023-04-20T12:09:36.340Z,99011.97
2023-04-20T12:12:42.303Z,99011.72
2023-04-20T12:15:47.539Z,99009.19
2023-04-20T12:18:51.385Z,99001.41
2023-04-20T12:21:55.233Z,98996.34
2023-04-20T12:24:58.957Z,99002.81
2023-04-20T12:28:07.020Z,98989.28
2023-04-20T12:31:12.411Z,98985.13
2023-04-20T12:34:16.357Z,98978.13
2023-04-20T12:37:20.907Z,98985.84
2023-04-20T12:40:24.950Z,98983.03
2023-04-20T12:43:28.899Z,98975.38
2023-04-20T12:46:34.134Z,98975.47
2023-04-20T12:49:37.901Z,98968.22
2023-04-20T12:52:41.835Z,98968.41
2023-04-20T12:55:45.462Z,98963.31
2023-04-20T12:58:49.168Z,98965.16
2023-04-20T13:01:54.467Z,98959.41
2023-04-20T13:04:58.226Z,98961.06
2023-04-20T13:08:01.973Z,98963.66
2023-04-20T13:11:06.700Z,98961.78
2023-04-20T13:14:10.313Z,98958.69
2023-04-20T13:17:15.526Z,98958.34
2023-04-20T13:20:19.232Z,98963.66
2023-04-20T13:23:23.694Z,98963.03
2023-04-20T13:26:27.739Z,98964.25
2023-04-20T13:29:31.808Z,98967.38
2023-04-20T13:32:38.843Z,98966.91
2023-04-20T13:35:43.473Z,98972.66
2023-04-20T13:38:47.570Z,98977.75
2023-04-20T13:41:51.318Z,98971.06
2023-04-20T13:44:55.047Z,98978.22
2023-04-20T13:48:00.254Z,98967.34
2023-04-20T13:51:04.051Z,98965.50
2023-04-20T13:54:08.275Z,98961.94
2023-04-20T13:57:12.046Z,98965.13
2023-04-20T14:00:16.360Z,98964.31
2023-04-20T14:03:21.762Z,98964.09
2023-04-20T14:06:25.758Z,98967.94
2023-04-20T14:09:29.895Z,98978.63
2023-04-20T14:12:34.382Z,98974.38
2023-04-20T14:15:38.303Z,98975.78
2023-04-20T14:18:43.859Z,98968.97
2023-04-20T14:21:47.879Z,98977.84
2023-04-20T14:24:51.762Z,98976.22
2023-04-20T14:27:55.604Z,98977.38
2023-04-20T14:31:01.103Z,98976.28
2023-04-20T14:34:06.469Z,98977.38
2023-04-20T14:37:10.404Z,98980.69
2023-04-20T14:40:14.612Z,98967.44
2023-04-20T14:43:18.480Z,98964.63
2023-04-20T14:46:22.222Z,98963.63
2023-04-20T14:49:27.592Z,98962.28
2023-04-20T14:52:31.384Z,98968.56
2023-04-20T14:55:35.221Z,98961.75
2023-04-20T14:58:40.493Z,98965.63
2023-04-20T15:01:55.154Z,98967.25
2023-04-20T15:05:10.243Z,98959.63
2023-04-20T15:08:14.948Z,98959.97
2023-04-20T15:11:18.802Z,98955.22
2023-04-20T15:14:22.554Z,98952.47
2023-04-20T15:17:26.606Z,98959.75
2023-04-20T15:20:31.891Z,98960.25
2023-04-20T15:23:35.741Z,98959.03
2023-04-20T15:26:39.654Z,98967.06
2023-04-20T15:29:43.502Z,98970.72
2023-04-20T15:32:47.454Z,98967.84
2023-04-20T15:35:52.752Z,98974.66
2023-04-20T15:38:57.992Z,98979.22
2023-04-20T15:42:03.223Z,98978.06
2023-04-20T15:45:08.674Z,98979.03
2023-04-20T15:48:12.544Z,98986.34
2023-04-20T15:51:19.380Z,98976.00
2023-04-20T15:54:23.948Z,98984.22
2023-04-20T15:57:27.862Z,98989.88
2023-04-20T16:00:31.753Z,98991.38
2023-04-20T16:03:35.802Z,98991.38
2023-04-20T16:06:42.031Z,98990.53
2023-04-20T16:09:45.981Z,98997.66
2023-04-20T16:12:49.814Z,98994.81
2023-04-20T16:15:53.927Z,98994.81
2023-04-20T16:18:57.840Z,98998.06
2023-04-20T16:22:03.002Z,98999.13
2023-04-20T16:25:07.859Z,99003.78
2023-04-20T16:28:11.649Z,99005.22
2023-04-20T16:31:16.045Z,99004.19
2023-04-20T16:34:20.537Z,99005.59
2023-04-20T16:37:26.106Z,99002.78
2023-04-20T16:40:30.023Z,99003.97
2023-04-20T16:43:33.843Z,99008.44
2023-04-20T16:46:37.707Z,99008.03
2023-04-20T16:49:41.566Z,98999.50
2023-04-20T16:52:46.755Z,99006.44
2023-04-20T16:55:50.694Z,98999.31
2023-04-20T16:58:54.555Z,99012.31
2023-04-20T17:01:58.415Z,99008.84
2023-04-20T17:05:02.378Z,99010.25
2023-04-20T17:08:08.013Z,99019.00
2023-04-20T17:11:11.832Z,99019.41
2023-04-20T17:14:16.327Z,99018.16
2023-04-20T17:17:20.186Z,99018.34
2023-04-20T17:20:23.977Z,99022.78
2023-04-20T17:23:29.907Z,99032.47
2023-04-20T17:26:33.721Z,99020.13
2023-04-20T17:29:38.727Z,99031.84
2023-04-20T17:32:42.807Z,99033.66
2023-04-20T17:35:46.735Z,99034.97
2023-04-20T17:38:51.909Z,99035.16
2023-04-20T17:41:55.692Z,99044.78
2023-04-20T17:44:59.333Z,99034.88
2023-04-20T17:48:03.154Z,99035.88
2023-04-20T17:51:06.875Z,99038.53
2023-04-20T17:54:12.094Z,99055.81
2023-04-20T17:57:15.791Z,99066.78
2023-04-20T18:00:20.716Z,99070.16
2023-04-20T18:03:24.466Z,99073.16
2023-04-20T18:06:28.373Z,99074.53
2023-04-20T18:09:33.498Z,99082.88
2023-04-20T18:12:37.246Z,99092.28
2023-04-20T18:15:41.331Z,99084.56
2023-04-20T18:18:45.110Z,99091.00
2023-04-20T18:21:48.932Z,99093.97
2023-04-20T18:24:54.492Z,99104.63
2023-04-20T18:27:58.225Z,99099.78
2023-04-20T18:31:02.711Z,99104.09
2023-04-20T18:34:07.829Z,99109.09
2023-04-20T18:37:14.294Z,99103.25
2023-04-20T18:40:19.516Z,99105.75
2023-04-20T18:43:23.302Z,99118.00
2023-04-20T18:46:27.221Z,99112.78
2023-04-20T18:49:32.190Z,99111.78
2023-04-20T18:52:36.142Z,99114.81
2023-04-20T18:55:41.596Z,99120.22
2023-04-20T18:58:45.483Z,99123.44
2023-04-20T19:01:50.147Z,99123.06
2023-04-20T19:04:54.122Z,99132.81
2023-04-20T19:07:57.915Z,99130.00
2023-04-20T19:11:03.103Z,99132.59
2023-04-20T19:14:06.933Z,99130.75
2023-04-20T19:17:10.620Z,99127.63
2023-04-20T19:20:14.645Z,99129.34
2023-04-20T19:23:18.304Z,99133.56
2023-04-20T19:26:24.371Z,99141.03
2023-04-20T19:29:28.211Z,99142.09
2023-04-20T19:32:31.983Z,99150.09
2023-04-20T19:35:35.716Z,99143.72
2023-04-20T19:38:39.453Z,99146.28
2023-04-20T19:41:44.893Z,99145.47
2023-04-20T19:44:48.854Z,99141.81
2023-04-20T19:47:53.188Z,99146.06
2023-04-20T19:50:58.040Z,99146.59
2023-04-20T19:54:03.764Z,99144.22
2023-04-20T19:57:09.093Z,99143.91
2023-04-20T20:00:14.276Z,99139.19
2023-04-20T20:03:18.592Z,99142.09
2023-04-20T20:06:23.802Z,99144.28
2023-04-20T20:09:27.778Z,99140.97
2023-04-20T20:12:32.982Z,99137.66
2023-04-20T20:15:37.678Z,99152.31
2023-04-20T20:18:41.955Z,99144.69
2023-04-20T20:21:45.591Z,99144.44
2023-04-20T20:24:51.388Z,99151.91
2023-04-20T20:27:56.680Z,99154.81
2023-04-20T20:31:00.774Z,99149.59
2023-04-20T20:34:04.525Z,99160.84
2023-04-20T20:37:10.576Z,99160.59
2023-04-20T20:40:15.509Z,99163.50
2023-04-20T20:43:20.682Z,99164.50
2023-04-20T20:46:24.353Z,99160.88
2023-04-20T20:49:28.104Z,99156.88
2023-04-20T20:52:31.807Z,99164.22
2023-04-20T20:55:35.540Z,99164.97
2023-04-20T20:58:40.697Z,99154.66
2023-04-20T21:01:44.431Z,99161.66
2023-04-20T21:04:48.178Z,99154.31
2023-04-20T21:07:51.890Z,99160.09
2023-04-20T21:10:55.662Z,99152.41
2023-04-20T21:14:02.972Z,99155.09
2023-04-20T21:17:06.823Z,99155.91
2023-04-20T21:20:11.811Z,99154.78
2023-04-20T21:23:16.133Z,99157.44
2023-04-20T21:26:19.792Z,99157.22
2023-04-20T21:29:24.893Z,99156.00
2023-04-20T21:32:28.651Z,99163.56
2023-04-20T21:35:32.451Z,99164.72
2023-04-20T21:38:36.483Z,99167.81
2023-04-20T21:41:40.767Z,99167.38
2023-04-20T21:44:45.889Z,99168.38
2023-04-20T21:47:49.590Z,99177.75
2023-04-20T21:50:53.308Z,99180.66
2023-04-20T21:53:56.971Z,99180.25
2023-04-20T21:57:00.655Z,99186.53
2023-04-20T22:00:06.519Z,99193.25
2023-04-20T22:03:18.348Z,99183.03
2023-04-20T22:06:22.315Z,99177.50
2023-04-20T22:09:26.177Z,99175.22
2023-04-20T22:12:39.329Z,99174.22
2023-04-20T22:15:47.388Z,99173.50
2023-04-20T22:18:51.891Z,99175.00
2023-04-20T22:21:55.571Z,99165.88
2023-04-20T22:24:59.268Z,99167.00
2023-04-20T22:28:02.979Z,99169.03
2023-04-20T22:31:08.258Z,99165.25
2023-04-20T22:34:11.976Z,99161.88
2023-04-20T22:37:16.843Z,99163.13
2023-04-20T22:40:20.512Z,99163.38
2023-04-20T22:43:24.506Z,99162.25
2023-04-20T22:46:29.742Z,99158.06
2023-04-20T22:49:33.576Z,99164.63
2023-04-20T22:52:38.765Z,99160.19
2023-04-20T22:55:42.422Z,99161.84
2023-04-20T22:58:46.049Z,99157.22
2023-04-20T23:01:51.126Z,99157.78
2023-04-20T23:04:54.908Z,99148.53
2023-04-20T23:08:00.728Z,99148.88
2023-04-20T23:11:04.946Z,99154.06
2023-04-20T23:14:09.235Z,99140.22
2023-04-20T23:17:14.285Z,99133.66
2023-04-20T23:20:17.965Z,99124.72
2023-04-20T23:23:21.668Z,99133.09
2023-04-20T23:26:25.755Z,99133.94
2023-04-20T23:29:30.206Z,99132.75
2023-04-20T23:32:35.849Z,99127.78
2023-04-20T23:35:39.500Z,99126.31
2023-04-20T23:38:43.364Z,99123.50
2023-04-20T23:41:47.197Z,99113.34
2023-04-20T23:44:50.739Z,99118.53
2023-04-20T23:47:56.066Z,99117.00
2023-04-20T23:50:59.805Z,99118.44
2023-04-20T23:54:03.694Z,99112.91
2023-04-20T23:57:07.345Z,99113.00
